Ouagadougou, Burkina Faso
Current Conditions -  °F | °C
As of 4:00 PM on Thursday 23 Oct 2014 (Local Time) from DFFD Reporting Station
Broken Clouds Broken Clouds  
Wind Chill: 97°   Ceiling: 26000
Heat Index: 97°   Visibility: 6mi
Dew Point: 55°   Wind: 5mph
Humidity: 25%   Direction: 80°E
Pressure: 29.83"   Gusts: NA
Location:  12.37°N, 1.53°W
Report Text: DFFD 231600Z 08004KT 9999 FEW026 BKN260 36/13 Q1010 NOSIG
Loading
Personal Weather Stations






























Interactive Weather Map
Tropical Storm Tracking
New forecast layout! Learn more

10-Day Weather Forecast

Advertisements
Track Severe Weather on mobile